Adel, OR

10:43 AM PDT on August 01, 2014 (GMT -0700)
RAWS BARREL SPRINGS NV US (MBRLN2) Elev 5730 ft | 41.91 °N, 119.94 °W | Change Station

Current weather conditions updated 44 minutes ago

Clear
Clear
76 °F
Feels Like 77 °F
N
6
Wind Variable Wind from WSW
Gusts 10.0 mph

Today is forecast to be Warmer than yesterday.

Today
High -- | Low -- °F
--% Chance of Precip.
Yesterday
High -- | Low -- °F
Precip. -- in
5:51 AM 8:17 PM
Waxing Crescent, 28% visible
Pressure 30.19 in
Visibility 10.0 miles
Clouds Clear
Heat Index 77 °F
Dew Point 44 °F
Humidity 32%
Rainfall 0.00 in
Snow Depth Not available.
UV 8 out of 12
Pollen 3.30 out of 12
Air Quality Not available.
Flu Activity Not available.
METAR KLKV 011735Z AUTO 06003KT 10SM CLR 24/08 A3019 RMK AO1

More Conditions Fewer Conditions

Pressure 30.19 in
Visibility 10.0 miles
Clouds Clear
Heat Index 77 °F
Dew Point 44 °F
Humidity 32%
Rainfall 0.00 in
Snow Depth Not available.
UV 8 out of 12
Pollen 3.30 out of 12
Air Quality Not available.
Flu Activity Not available.
METAR KLKV 011735Z AUTO 06003KT 10SM CLR 24/08 A3019 RMK AO1

More Conditions Fewer Conditions

10-Day Weather Forecast

Almanac

Astronomy

Aug. 01, 2014 Rise Set
Actual Time 5:51 AM PDT 8:17 PM PDT
Civil Twilight 5:20 AM PDT 8:49 PM PDT
Nautical Twilight 4:40 AM PDT 9:28 PM PDT
Astronomical Twilight 3:56 AM PDT 10:12 PM PDT
Moon 11:27 AM PDT 10:57 PM PDT
Length of Visible Light 15h 29m
Length of Day
14h 25m
Tomorrow will be 2m 11s shorter.
Waxing Crescent, 28% of the Moon is Illuminated
Today
Waxing Crescent
Aug 3
First Quarter
Aug 10
Full
Aug 17
Last Quarter
Aug 25
New

Today's Extremes

State Highs State Lows

Community

WunderPhotos

Upload Photos

1,739,636 photos uploaded!

Nearby

Snow Depth

Station Depth Elevation
Fish Creek 0 in 7900 ft
Strawberry 0 in 5760 ft
Snow Mountain 0 in 6220 ft
Sevenmile Marsh 0 in 6200 ft
Cold Springs Camp 0 in 6100 ft

Earthquake Activity

City Distance Mag. Time & Date
No recent earthquake activity has been reported nearby.
Minimum magnitude displayed is 2.5.

Coastal Water Temperatures

Place Temperature
No Stations Reporting

Nearby Weather Stations

Station Location Temp. Heat Index Dew Point Humidity Wind Precip. Elev Updated Type
RAWS CATNIP MOUNTAIN NV, Adel, OR 76 °F 77 °F 42 °F 30% South  at  5 mph 0.00 in / hr 5750 ft 9:27 AM PDT MADIS
RAWS BARREL SPRINGS NV, Fort Bidwell, CA 76 °F 77 °F 44 °F 32% WSW  at  6 mph 0.00 in / hr 5730 ft 9:59 AM PDT MADIS
RAWS ROCK CREEK OR, Plush, OR 78 °F 78 °F 45 °F 31% NW  at  6 mph 0.00 in / hr 5649 ft 9:27 AM PDT MADIS

Show More Stations Show Fewer Stations